Estación de Galvarino

Ultimos registro cada 15 minutos 77
Estación Fecha / Hora Temperatura Humedad Lluvia Velocidad Dirección Radiación Presion
77 Galvarino 06-05-2026 19:00 9,3 87,3 0 1,5 4 0,6 995,5
76 Galvarino 06-05-2026 18:45 9,3 86,7 0 1 352 0,6 988,1
75 Galvarino 06-05-2026 18:30 9,4 86,8 0 1 1 0,6 987,4
74 Galvarino 06-05-2026 18:15 9,3 88,7 0 1 357 0,6 985,8
73 Galvarino 06-05-2026 18:00 9,3 89,4 0 1,5 1 0,6 985,4
72 Galvarino 06-05-2026 17:45 9,4 89,6 0 2 358 4,4 984,7
71 Galvarino 06-05-2026 17:30 9,3 90,6 0 2 352 8,1 984
70 Galvarino 06-05-2026 17:15 10,1 87 0 2 13 11,9 986,5
69 Galvarino 06-05-2026 17:00 10,3 85,1 0 2 15 51,9 986,4
68 Galvarino 06-05-2026 16:45 10,5 84,2 0 2,5 0 40,6 985,9
67 Galvarino 06-05-2026 16:30 10,8 82,8 0 1,5 3 65,6 986,4
66 Galvarino 06-05-2026 16:15 11 80,6 0 2 17 98,1 986,4
65 Galvarino 06-05-2026 16:00 11,1 80,8 0 2,5 17 64,4 984,9
64 Galvarino 06-05-2026 15:45 10,4 88,3 0 2 11 80,6 983,2
63 Galvarino 06-05-2026 15:30 10,6 86,7 0 2,5 7 60,6 983,3
62 Galvarino 06-05-2026 15:15 9,9 91,9 0 2,5 358 126,9 980,4
61 Galvarino 06-05-2026 15:00 9,8 91,4 0 3 357 99,4 980
60 Galvarino 06-05-2026 14:45 10,2 91,3 0 3 3 161,9 981,2
59 Galvarino 06-05-2026 14:30 10,3 90 0 2,5 20 98,1 980,9
58 Galvarino 06-05-2026 14:15 10,4 92,4 0 2,5 18 151,9 981,2
57 Galvarino 06-05-2026 14:00 10 95 0 2,5 22 108,1 978,4
56 Galvarino 06-05-2026 13:45 10 96,4 0,2 2,5 22 80,6 979
55 Galvarino 06-05-2026 13:30 10,2 95,8 0,2 2 24 96,9 978,5
54 Galvarino 06-05-2026 13:15 10,5 93,5 0 2 29 30,6 978,8
53 Galvarino 06-05-2026 13:00 10,7 93,3 0 2,5 29 108,1 979,4
52 Galvarino 06-05-2026 12:45 10,9 93,5 0 2 38 118,1 979,5
51 Galvarino 06-05-2026 12:30 11,2 94,6 0,2 1,5 35 123,1 980,9
50 Galvarino 06-05-2026 12:15 11,1 94,7 0,2 1,5 32 88,1 980,2
49 Galvarino 06-05-2026 12:00 11,2 93,4 0 2,5 24 110,6 978,8
48 Galvarino 06-05-2026 11:45 11,2 92,3 0,2 3,5 10 111,9 977,7
47 Galvarino 06-05-2026 11:30 11,2 91,1 0 3,5 11 76,9 977,1
46 Galvarino 06-05-2026 11:15 11,6 90,3 0 3 0 96,9 977,6
45 Galvarino 06-05-2026 11:00 11,9 92,9 0 1,5 11 64,4 979,9
44 Galvarino 06-05-2026 10:45 11,8 94,9 0 1,5 56 46,9 979,2
43 Galvarino 06-05-2026 10:30 12 95,5 0 1,5 66 34,4 980,4
42 Galvarino 06-05-2026 10:15 12,4 97,7 0 0,5 79 74,4 982,7
41 Galvarino 06-05-2026 10:00 12,6 98 0 0,5 98 44,4 982,8
40 Galvarino 06-05-2026 09:45 12,7 98 0 0 117 20,6 983
39 Galvarino 06-05-2026 09:30 12,7 97,9 0 0,5 147 31,9 982,7
38 Galvarino 06-05-2026 09:15 12,5 97,8 0,4 1 163 41,9 981,7
37 Galvarino 06-05-2026 09:00 12,4 97,8 2 0,5 157 6,9 981,3
36 Galvarino 06-05-2026 08:45 12,5 97,6 1,6 0,5 108 0,6 981,4
35 Galvarino 06-05-2026 08:30 12,5 97,6 1,6 2 159 0,6 981,4
34 Galvarino 06-05-2026 08:15 12,5 97,2 1,8 2 170 0,6 981,2
33 Galvarino 06-05-2026 08:00 12,7 96,4 0,6 1,5 175 0,6 981,2
32 Galvarino 06-05-2026 07:45 12,7 96,2 0 2 175 0,6 981,5
31 Galvarino 06-05-2026 07:30 12,7 96,4 0 1,5 177 0,6 981,5
30 Galvarino 06-05-2026 07:15 12,6 96,6 0,2 2 178 0,6 981,3
29 Galvarino 06-05-2026 07:00 12,7 96,5 0 2 177 0,6 981,3
28 Galvarino 06-05-2026 06:45 12,6 96,6 0,6 1,5 180 0,6 981,2
27 Galvarino 06-05-2026 06:30 12,6 96,9 0,4 1 184 0,6 981,1
26 Galvarino 06-05-2026 06:15 12,6 96,7 0,4 1 181 0,6 981,5
25 Galvarino 06-05-2026 06:00 12,7 96,4 0,2 1 177 0,6 981,8
24 Galvarino 06-05-2026 05:45 12,6 96,5 0,2 1 175 0,6 981,9
23 Galvarino 06-05-2026 05:30 12,6 96,2 0,4 1,5 177 0,6 981,8
22 Galvarino 06-05-2026 05:15 12,6 96,8 0,8 1 178 0,6 981,8
21 Galvarino 06-05-2026 05:00 12,6 96,5 0,2 1 177 0,6 981,9
20 Galvarino 06-05-2026 04:45 12,7 96,3 0,2 1 177 0,6 982,1
19 Galvarino 06-05-2026 04:30 12,7 96,1 0,2 1,5 177 0,6 982,1
18 Galvarino 06-05-2026 04:15 12,7 95,4 0,2 1 177 0,6 982,2
17 Galvarino 06-05-2026 04:00 12,8 95,1 1,4 1,5 177 0,6 982,3
16 Galvarino 06-05-2026 03:45 13,2 92,2 0,2 1,5 181 0,6 982,2
15 Galvarino 06-05-2026 03:30 13,3 90,8 0 1 184 0,6 982,4
14 Galvarino 06-05-2026 03:15 13,5 90,2 0 2 178 0,6 982,5
13 Galvarino 06-05-2026 03:00 13,6 89,1 0 2 180 0,6 982,6
12 Galvarino 06-05-2026 02:45 13,6 89,7 0 1,5 181 0,6 982,8
11 Galvarino 06-05-2026 02:30 13,5 90,4 0 2 181 0,6 982,4
10 Galvarino 06-05-2026 02:15 13,6 89,8 0 2,5 183 0,6 982,6
9 Galvarino 06-05-2026 02:00 13,5 89,9 0 2 181 0,6 984,7
8 Galvarino 06-05-2026 01:45 13,4 90,4 0 2 180 0,6 984,6
7 Galvarino 06-05-2026 01:30 13,2 91 0 1 181 0,6 983,8
6 Galvarino 06-05-2026 01:15 13,2 90,4 0 2 177 0,6 983,6
5 Galvarino 06-05-2026 01:00 13,1 90,1 0 2 177 0,6 982,9
4 Galvarino 06-05-2026 00:45 13,2 88,9 0 1,5 175 0,6 984
3 Galvarino 06-05-2026 00:30 13,1 89,6 0 0,5 178 0,6 983,5
2 Galvarino 06-05-2026 00:15 13,2 89,9 0 1 170 0,6 983,9
1 Galvarino 06-05-2026 00:00 13,1 89,9 0 1 170 0,6 983,5